Time;durP1;ratioP1;P1;durP2;ratioP2;P2;SDS_P1;SDS_P2;PMS_P1;PMS_P2;Temp;Humidity;BMP_temperature;BMP_pressure;BME280_temperature;BME280_humidity;BME280_pressure;Samples;Min_cycle;Max_cycle;Signal;HPM_P1;HPM_P2
2022/04/18 00:02:23;;;;;;;5.87;2.30;;;;;3.40;94311.00;;;;7394668;19;20215;-77
2022/04/18 00:04:57;;;;;;;3.67;2.87;;;;;3.40;94310.00;;;;7397458;19;20156;-76
2022/04/18 00:07:24;;;;;;;3.50;2.60;;;;;3.40;94301.00;;;;7398032;19;20140;-77
2022/04/18 00:09:52;;;;;;;3.10;2.60;;;;;3.10;94309.00;;;;7397519;19;20141;-77
2022/04/18 00:12:26;;;;;;;3.57;2.43;;;;;3.00;94307.00;;;;7396417;19;20129;-76
2022/04/18 00:15:07;;;;;;;3.23;2.90;;;;;3.40;94293.00;;;;7398023;19;20165;-76
2022/04/18 00:17:43;;;;;;;3.40;2.83;;;;;3.20;94297.00;;;;7397258;19;20125;-76
2022/04/18 00:20:10;;;;;;;3.87;2.60;;;;;3.10;94297.00;;;;7399037;19;20152;-77
2022/04/18 00:22:38;;;;;;;4.93;2.97;;;;;3.10;94296.00;;;;7391935;19;20144;-76
2022/04/18 00:25:12;;;;;;;4.80;2.77;;;;;3.10;94286.00;;;;7400117;19;20201;-77
2022/04/18 00:27:39;;;;;;;4.33;2.57;;;;;2.90;94291.00;;;;7395804;19;20603;-77
2022/04/18 00:30:07;;;;;;;4.23;2.83;;;;;3.00;94289.00;;;;7397707;19;20144;-78
2022/04/18 00:32:41;;;;;;;3.43;2.47;;;;;2.80;94285.00;;;;7395411;19;20128;-77
2022/04/18 00:35:08;;;;;;;4.27;2.73;;;;;2.70;94284.00;;;;7398735;19;20475;-78
2022/04/18 00:37:39;;;;;;;5.87;2.70;;;;;2.70;94285.00;;;;7398485;19;20148;-77
2022/04/18 00:40:14;;;;;;;3.70;2.53;;;;;2.70;94281.00;;;;7396317;19;20125;-77
2022/04/18 00:42:44;;;;;;;5.60;2.73;;;;;2.70;94286.00;;;;7397230;19;20164;-78
2022/04/18 00:45:12;;;;;;;6.50;3.63;;;;;2.60;94282.00;;;;7396586;19;20136;-76
2022/04/18 00:47:46;;;;;;;4.03;3.20;;;;;2.70;94273.00;;;;7398841;19;20148;-77
2022/04/18 00:50:13;;;;;;;3.40;2.77;;;;;2.70;94275.00;;;;7393815;19;20136;-77
2022/04/18 00:52:41;;;;;;;3.67;2.60;;;;;2.60;94274.00;;;;7396792;19;20137;-77
2022/04/18 00:55:15;;;;;;;4.07;2.90;;;;;2.50;94269.00;;;;7396354;19;20188;-78
2022/04/18 00:57:45;;;;;;;4.63;3.23;;;;;2.70;94274.00;;;;7395498;19;20131;-77
2022/04/18 01:00:12;;;;;;;3.07;2.60;;;;;2.60;94265.00;;;;7394750;19;20580;-77
2022/04/18 01:02:47;;;;;;;5.23;2.63;;;;;2.60;94270.00;;;;7393620;19;20121;-77
2022/04/18 01:05:15;;;;;;;4.77;2.73;;;;;2.60;94264.00;;;;7392780;19;20143;-76
2022/04/18 01:07:42;;;;;;;3.67;2.50;;;;;2.60;94255.00;;;;7392700;19;20144;-77
2022/04/18 01:10:17;;;;;;;4.50;2.73;;;;;2.60;94254.00;;;;7392322;19;20623;-77
2022/04/18 01:12:44;;;;;;;6.07;2.80;;;;;2.70;94251.00;;;;7395091;19;20954;-77
2022/04/18 01:15:12;;;;;;;4.43;2.90;;;;;2.80;94245.00;;;;7395220;19;20196;-77
2022/04/18 01:17:52;;;;;;;3.10;2.60;;;;;2.80;94242.00;;;;7392406;19;20177;-77
2022/04/18 01:20:20;;;;;;;3.00;2.70;;;;;2.70;94244.00;;;;7393448;19;20623;-77
2022/04/18 01:22:54;;;;;;;3.90;3.00;;;;;2.50;94234.00;;;;7392526;19;20170;-77
2022/04/18 01:31:04;;;;;;;3.90;3.10;;;;;2.50;94225.00;;;;7393399;19;20619;-77
2022/04/18 01:33:38;;;;;;;6.40;2.93;;;;;2.70;94232.00;;;;7397926;19;20606;-76
2022/04/18 01:36:07;;;;;;;4.27;3.30;;;;;2.60;94237.00;;;;7394472;19;20140;-77
2022/04/18 01:38:35;;;;;;;4.93;3.20;;;;;2.50;94230.00;;;;7391695;19;20151;-77
2022/04/18 01:41:09;;;;;;;3.50;3.00;;;;;2.40;94225.00;;;;7390997;19;20172;-77
2022/04/18 01:43:36;;;;;;;3.87;2.83;;;;;2.30;94226.00;;;;7392956;19;20623;-78
2022/04/18 01:46:04;;;;;;;5.83;3.30;;;;;2.50;94225.00;;;;7395797;19;20171;-77
2022/04/18 01:48:38;;;;;;;4.53;3.20;;;;;2.30;94223.00;;;;7393011;19;20124;-77
2022/04/18 01:51:05;;;;;;;5.17;3.10;;;;;2.20;94222.00;;;;7394927;19;20601;-77
2022/04/18 01:53:33;;;;;;;3.53;3.00;;;;;2.30;94226.00;;;;7392934;19;20513;-77
2022/04/18 01:56:07;;;;;;;5.00;3.33;;;;;2.30;94224.00;;;;7395088;19;20141;-77
2022/04/18 01:58:34;;;;;;;5.63;3.07;;;;;2.20;94229.00;;;;7393224;19;20276;-77
2022/04/18 02:01:02;;;;;;;7.03;3.37;;;;;2.30;94220.00;;;;7392784;19;20144;-75
2022/04/18 02:03:40;;;;;;;6.77;3.33;;;;;2.30;94221.00;;;;7395089;19;20124;-76
2022/04/18 02:06:08;;;;;;;5.43;3.40;;;;;2.40;94215.00;;;;7392957;19;20129;-76
2022/04/18 02:08:36;;;;;;;5.03;3.63;;;;;2.60;94213.00;;;;7392942;19;20607;-77
2022/04/18 02:11:10;;;;;;;5.30;3.33;;;;;2.50;94204.00;;;;7391344;19;20621;-75
2022/04/18 02:13:38;;;;;;;5.70;3.40;;;;;2.60;94208.00;;;;7395361;19;20536;-77
2022/04/18 02:16:06;;;;;;;5.30;3.20;;;;;2.60;94203.00;;;;7389489;19;20659;-77
2022/04/18 02:18:40;;;;;;;6.17;3.23;;;;;2.50;94200.00;;;;7391412;19;20129;-76
2022/04/18 02:21:11;;;;;;;4.10;3.17;;;;;2.50;94202.00;;;;7391558;19;20144;-77
2022/04/18 02:23:40;;;;;;;3.70;2.87;;;;;2.50;94198.00;;;;7392970;19;20153;-77
2022/04/18 02:26:14;;;;;;;4.67;3.30;;;;;2.30;94204.00;;;;7390276;19;20126;-77
2022/04/18 02:28:41;;;;;;;4.00;2.90;;;;;2.30;94194.00;;;;7395431;19;20195;-77
2022/04/18 02:31:09;;;;;;;4.33;3.23;;;;;2.20;94205.00;;;;7391721;19;20117;-76
2022/04/18 02:33:43;;;;;;;7.40;3.80;;;;;2.20;94202.00;;;;7390700;19;20162;-77
2022/04/18 02:36:10;;;;;;;4.00;2.90;;;;;2.20;94200.00;;;;7390138;19;20129;-76
2022/04/18 02:38:38;;;;;;;6.23;3.33;;;;;2.10;94196.00;;;;7391184;19;20132;-77
2022/04/18 02:41:12;;;;;;;3.73;2.90;;;;;2.00;94197.00;;;;7394936;19;20621;-76
2022/04/18 02:43:39;;;;;;;6.30;3.27;;;;;1.90;94195.00;;;;7396038;19;20139;-77
2022/04/18 02:46:07;;;;;;;6.13;3.10;;;;;1.70;94193.00;;;;7391031;19;20603;-75
2022/04/18 02:48:43;;;;;;;4.70;3.43;;;;;1.70;94192.00;;;;7395865;19;20149;-77
2022/04/18 02:51:12;;;;;;;5.77;3.10;;;;;1.60;94185.00;;;;7391235;19;20615;-77
2022/04/18 02:53:40;;;;;;;4.43;3.00;;;;;1.60;94184.00;;;;7393030;19;20156;-77
2022/04/18 02:56:14;;;;;;;4.67;3.20;;;;;1.60;94182.00;;;;7390870;19;20145;-76
2022/04/18 02:58:41;;;;;;;4.37;3.27;;;;;1.60;94177.00;;;;7393795;19;20603;-77
2022/04/18 03:01:09;;;;;;;5.20;3.57;;;;;1.50;94183.00;;;;7390766;19;20154;-77
2022/04/18 03:03:43;;;;;;;3.50;3.20;;;;;1.50;94168.00;;;;7393126;19;20153;-77
2022/04/18 03:06:10;;;;;;;5.13;3.37;;;;;1.60;94176.00;;;;7391791;19;20136;-76
2022/04/18 03:08:38;;;;;;;4.47;3.30;;;;;1.60;94172.00;;;;7389588;19;20137;-76
2022/04/18 03:11:12;;;;;;;4.77;3.73;;;;;1.50;94170.00;;;;7389070;19;20125;-77
2022/04/18 03:13:46;;;;;;;5.37;3.67;;;;;1.50;94173.00;;;;7386752;19;20128;-77
2022/04/18 03:16:34;;;;;;;5.13;3.60;;;;;1.50;94170.00;;;;7391613;19;20630;-77
2022/04/18 03:19:09;;;;;;;5.27;3.87;;;;;1.50;94164.00;;;;7390833;19;20587;-78
2022/04/18 03:21:43;;;;;;;6.47;3.73;;;;;1.40;94169.00;;;;7392651;19;20125;-77
2022/04/18 03:24:10;;;;;;;5.00;3.67;;;;;1.20;94156.00;;;;7389024;19;20137;-77
2022/04/18 03:26:38;;;;;;;5.67;3.60;;;;;1.10;94160.00;;;;7392719;19;20598;-77
2022/04/18 03:29:12;;;;;;;4.70;3.57;;;;;1.10;94155.00;;;;7389016;19;20596;-77
2022/04/18 03:31:39;;;;;;;5.60;3.70;;;;;1.20;94149.00;;;;7397156;19;20145;-77
2022/04/18 03:34:07;;;;;;;5.13;3.90;;;;;1.60;94160.00;;;;7397994;19;20189;-76
2022/04/18 03:42:31;;;;;;;6.33;3.80;;;;;1.50;94150.00;;;;7399675;19;20624;-77
2022/04/18 03:45:05;;;;;;;4.33;3.50;;;;;1.30;94147.00;;;;7395702;19;20128;-77
2022/04/18 03:47:39;;;;;;;4.20;3.53;;;;;1.20;94142.00;;;;7396286;19;20200;-77
2022/04/18 03:50:07;;;;;;;5.70;3.93;;;;;1.10;94137.00;;;;7396374;19;20614;-77
2022/04/18 03:52:34;;;;;;;4.83;3.47;;;;;1.10;94142.00;;;;7396249;19;20181;-77
2022/04/18 03:55:11;;;;;;;5.03;3.60;;;;;1.20;94140.00;;;;7395552;19;20125;-77
2022/04/18 03:57:38;;;;;;;5.90;3.80;;;;;1.10;94138.00;;;;7395363;19;20226;-76
2022/04/18 04:00:09;;;;;;;6.77;3.67;;;;;1.10;94136.00;;;;7397345;19;20138;-77
2022/04/18 04:02:43;;;;;;;4.47;3.53;;;;;1.20;94137.00;;;;7395235;19;20128;-76
2022/04/18 04:05:11;;;;;;;5.87;3.50;;;;;1.20;94137.00;;;;7398218;19;20411;-77
2022/04/18 04:07:39;;;;;;;5.30;3.50;;;;;1.20;94133.00;;;;7396624;19;20188;-75
2022/04/18 04:10:13;;;;;;;4.93;3.43;;;;;1.20;94133.00;;;;7396100;19;20149;-76
2022/04/18 04:12:40;;;;;;;4.23;3.57;;;;;1.30;94141.00;;;;7397376;19;20172;-76
2022/04/18 04:15:09;;;;;;;5.63;4.00;;;;;1.50;94139.00;;;;7394960;19;20159;-76
2022/04/18 04:17:49;;;;;;;5.73;3.57;;;;;1.60;94139.00;;;;7391132;19;20499;-75
2022/04/18 04:20:22;;;;;;;4.87;3.53;;;;;1.40;94140.00;;;;7395303;19;20153;-76
2022/04/18 04:22:56;;;;;;;7.23;3.70;;;;;1.30;94149.00;;;;7396980;19;20159;-76
2022/04/18 04:25:24;;;;;;;6.63;3.67;;;;;1.10;94150.00;;;;7395163;19;20144;-76
2022/04/18 04:27:51;;;;;;;6.00;4.03;;;;;0.90;94138.00;;;;7395420;19;20133;-76
2022/04/18 04:30:26;;;;;;;5.80;3.73;;;;;1.00;94143.00;;;;7396061;19;20136;-76
2022/04/18 04:32:54;;;;;;;5.17;3.87;;;;;1.00;94138.00;;;;7396530;19;20133;-76
2022/04/18 04:35:21;;;;;;;7.23;4.00;;;;;1.20;94136.00;;;;7395545;19;20162;-76
2022/04/18 04:38:03;;;;;;;6.33;3.83;;;;;1.20;94132.00;;;;7394010;19;20500;-76
2022/04/18 04:40:30;;;;;;;6.80;4.00;;;;;1.40;94124.00;;;;7399286;19;20178;-76
2022/04/18 04:43:05;;;;;;;5.20;4.20;;;;;1.70;94132.00;;;;7392750;19;20144;-76
2022/04/18 04:45:33;;;;;;;5.10;3.50;;;;;1.80;94119.00;;;;7400275;19;20592;-75
2022/04/18 04:48:00;;;;;;;6.03;4.03;;;;;2.00;94122.00;;;;7394956;19;20624;-76
2022/04/18 04:50:35;;;;;;;4.07;3.67;;;;;2.00;94126.00;;;;7399107;19;20140;-76
2022/04/18 04:53:03;;;;;;;4.53;3.60;;;;;2.00;94124.00;;;;7394750;19;20160;-75
2022/04/18 04:55:31;;;;;;;5.63;3.50;;;;;2.10;94121.00;;;;7396365;19;20170;-75
2022/04/18 04:58:05;;;;;;;5.03;3.50;;;;;2.10;94114.00;;;;7393266;19;20766;-76
2022/04/18 05:00:32;;;;;;;4.53;3.10;;;;;2.20;94127.00;;;;7399174;19;20129;-75
2022/04/18 05:03:00;;;;;;;4.77;3.30;;;;;2.20;94120.00;;;;7393109;19;20750;-76
2022/04/18 05:05:34;;;;;;;4.90;3.30;;;;;2.30;94116.00;;;;7398705;19;20162;-76
2022/04/18 05:08:02;;;;;;;6.13;3.57;;;;;2.40;94118.00;;;;7394138;19;20136;-76
2022/04/18 05:10:29;;;;;;;3.90;3.17;;;;;2.60;94112.00;;;;7397260;19;20152;-76
2022/04/18 05:13:04;;;;;;;5.80;3.80;;;;;2.80;94120.00;;;;7396880;19;20148;-76
2022/04/18 05:15:38;;;;;;;5.23;3.43;;;;;3.10;94121.00;;;;7396456;19;20319;-76
2022/04/18 05:18:19;;;;;;;4.27;3.40;;;;;3.40;94122.00;;;;7386865;19;20179;-76
2022/04/18 05:20:47;;;;;;;5.10;3.33;;;;;3.40;94123.00;;;;7394556;19;20632;-76
2022/04/18 05:23:21;;;;;;;4.27;3.30;;;;;3.40;94111.00;;;;7395669;19;20163;-76
2022/04/18 05:25:48;;;;;;;3.53;3.00;;;;;3.50;94122.00;;;;7396884;19;20180;-76
2022/04/18 05:28:17;;;;;;;4.47;3.57;;;;;3.80;94116.00;;;;7399489;19;20133;-76
2022/04/18 05:30:58;;;;;;;4.37;3.50;;;;;4.00;94115.00;;;;7397227;19;20611;-76
2022/04/18 05:33:27;;;;;;;4.60;3.50;;;;;4.00;94110.00;;;;7400966;19;20598;-76
2022/04/18 05:36:01;;;;;;;5.00;3.53;;;;;4.20;94121.00;;;;7398603;19;20475;-77
2022/04/18 05:38:32;;;;;;;3.93;3.40;;;;;4.20;94123.00;;;;7398485;19;20592;-76
2022/04/18 05:41:00;;;;;;;4.90;3.60;;;;;4.30;94120.00;;;;7397897;19;20184;-77
2022/04/18 05:43:34;;;;;;;3.73;2.90;;;;;4.40;94117.00;;;;7396529;19;20492;-76
2022/04/18 05:46:05;;;;;;;5.33;3.43;;;;;4.60;94118.00;;;;7399653;19;20145;-77
2022/04/18 05:48:33;;;;;;;4.23;3.50;;;;;4.70;94127.00;;;;7399508;19;20157;-77
2022/04/18 05:51:08;;;;;;;4.70;3.50;;;;;5.00;94126.00;;;;7398204;19;20187;-76
2022/04/18 05:53:35;;;;;;;3.83;3.40;;;;;5.10;94134.00;;;;7396161;19;20128;-77
2022/04/18 05:56:04;;;;;;;6.23;3.80;;;;;5.30;94124.00;;;;7401976;19;20150;-77
2022/04/18 05:58:40;;;;;;;3.60;3.10;;;;;5.50;94114.00;;;;7396335;19;20116;-77
2022/04/18 06:01:08;;;;;;;4.30;3.10;;;;;5.70;94131.00;;;;7397240;19;20165;-77
2022/04/18 06:03:37;;;;;;;4.57;3.53;;;;;5.80;94124.00;;;;7394276;19;20152;-76
2022/04/18 06:06:11;;;;;;;4.70;3.33;;;;;5.80;94122.00;;;;7397356;19;20180;-76
2022/04/18 06:08:39;;;;;;;4.97;3.27;;;;;6.30;94120.00;;;;7397953;19;20145;-76
2022/04/18 06:11:07;;;;;;;6.27;3.30;;;;;6.60;94126.00;;;;7397085;19;20629;-77
2022/04/18 06:13:58;;;;;;;6.07;3.10;;;;;6.70;94126.00;;;;7393592;19;20155;-77
2022/04/18 06:16:34;;;;;;;5.83;3.83;;;;;6.90;94123.00;;;;7395114;19;20190;-77
2022/04/18 06:19:09;;;;;;;4.67;3.50;;;;;6.90;94129.00;;;;7397610;19;20544;-77
2022/04/18 06:21:37;;;;;;;4.73;3.30;;;;;7.20;94124.00;;;;7396455;19;20167;-76
2022/04/18 06:24:05;;;;;;;4.23;3.20;;;;;7.60;94128.00;;;;7393296;19;20189;-76
2022/04/18 06:26:40;;;;;;;4.03;3.57;;;;;7.90;94126.00;;;;7395695;19;20128;-74
2022/04/18 06:29:08;;;;;;;3.90;3.00;;;;;8.30;94125.00;;;;7397531;19;20161;-75
2022/04/18 06:31:36;;;;;;;5.00;3.73;;;;;8.60;94122.00;;;;7395020;19;20540;-75
2022/04/18 06:34:10;;;;;;;3.80;3.37;;;;;8.90;94124.00;;;;7394911;19;20168;-75
2022/04/18 06:36:38;;;;;;;4.27;3.40;;;;;9.30;94124.00;;;;7396444;19;20156;-76
2022/04/18 06:39:06;;;;;;;5.93;3.70;;;;;9.40;94116.00;;;;7396741;19;20159;-75
2022/04/18 06:41:41;;;;;;;4.73;3.40;;;;;9.70;94118.00;;;;7396621;19;20133;-75
2022/04/18 06:44:10;;;;;;;4.27;3.17;;;;;9.90;94121.00;;;;7392645;19;20129;-74
2022/04/18 06:46:38;;;;;;;6.50;2.97;;;;;9.70;94122.00;;;;7395383;19;20451;-75
2022/04/18 06:49:12;;;;;;;5.40;2.80;;;;;10.10;94122.00;;;;7394720;19;20159;-74
2022/04/18 06:51:45;;;;;;;4.70;3.10;;;;;10.00;94127.00;;;;7395685;19;20549;-74
2022/04/18 06:54:12;;;;;;;4.27;2.97;;;;;10.10;94138.00;;;;7395908;19;20480;-75
2022/04/18 06:56:59;;;;;;;3.43;2.90;;;;;10.60;94121.00;;;;7394840;19;20152;-75
2022/04/18 06:59:28;;;;;;;4.23;2.90;;;;;10.80;94133.00;;;;7395769;19;20159;-75
2022/04/18 07:02:03;;;;;;;4.20;3.07;;;;;10.40;94129.00;;;;7394082;19;20504;-74
2022/04/18 07:04:31;;;;;;;5.20;2.73;;;;;10.70;94129.00;;;;7396559;19;20146;-74
2022/04/18 07:06:59;;;;;;;3.20;2.90;;;;;11.30;94132.00;;;;7403423;19;20167;-75
2022/04/18 07:09:34;;;;;;;5.57;2.90;;;;;11.30;94140.00;;;;7402291;19;20203;-74
2022/04/18 07:12:02;;;;;;;4.90;2.97;;;;;11.80;94124.00;;;;7400150;19;20773;-73
2022/04/18 07:14:30;;;;;;;4.07;2.90;;;;;11.70;94138.00;;;;7402447;19;20302;-75
2022/04/18 07:17:15;;;;;;;3.80;2.70;;;;;12.10;94128.00;;;;7402576;19;20641;-75
2022/04/18 07:19:56;;;;;;;4.20;2.70;;;;;12.00;94126.00;;;;7400836;19;20152;-74
2022/04/18 07:22:31;;;;;;;3.97;3.17;;;;;12.40;94133.00;;;;7400948;19;20136;-75
2022/04/18 07:24:59;;;;;;;5.57;2.60;;;;;12.10;94134.00;;;;7401728;19;20610;-75
2022/04/18 07:27:27;;;;;;;4.10;2.70;;;;;11.60;94123.00;;;;7402018;19;20144;-75
2022/04/18 07:30:03;;;;;;;2.50;2.17;;;;;11.30;94130.00;;;;7402933;19;20135;-74
2022/04/18 07:32:31;;;;;;;5.55;2.80;;;;;11.70;94137.00;;;;7399180;19;20144;-74
2022/04/18 07:35:03;;;;;;;4.35;2.33;;;;;12.00;94130.00;;;;7399808;19;20153;-75
2022/04/18 07:38:48;;;;;;;3.03;2.72;;;;;12.10;94127.00;;;;7399181;19;20212;-75
2022/04/18 07:40:25;;;;;;;5.53;2.80;;;;;12.10;94128.00;;;;7398000;19;20620;-76
2022/04/18 07:43:00;;;;;;;3.38;2.90;;;;;12.60;94131.00;;;;7401502;19;20181;-76
2022/04/18 07:45:28;;;;;;;6.30;3.00;;;;;12.70;94130.00;;;;7399942;19;20171;-75
2022/04/18 07:47:57;;;;;;;5.78;2.85;;;;;13.00;94132.00;;;;7402732;19;20140;-74
2022/04/18 07:53:18;;;;;;;6.13;3.22;;;;;13.80;94128.00;;;;7403447;19;20149;-75
2022/04/18 07:55:53;;;;;;;3.83;2.70;;;;;13.50;94141.00;;;;7402409;19;20152;-75
2022/04/18 07:58:21;;;;;;;4.03;2.92;;;;;13.70;94139.00;;;;7401931;19;20603;-76
2022/04/18 08:00:49;;;;;;;4.63;3.20;;;;;14.30;94139.00;;;;7398145;19;20176;-76
2022/04/18 08:03:24;;;;;;;3.67;2.60;;;;;14.50;94141.00;;;;7401524;19;20533;-75
2022/04/18 08:05:56;;;;;;;3.92;2.65;;;;;14.50;94146.00;;;;7401868;19;20148;-75
2022/04/18 08:08:24;;;;;;;3.50;2.78;;;;;14.50;94141.00;;;;7396134;19;20153;-76
2022/04/18 08:10:59;;;;;;;4.03;2.70;;;;;14.40;94142.00;;;;7397828;19;20178;-75
2022/04/18 08:13:27;;;;;;;2.72;2.53;;;;;14.90;94148.00;;;;7400343;19;20168;-74
2022/04/18 08:15:59;;;;;;;2.97;2.65;;;;;14.40;94143.00;;;;7396931;19;20149;-74
2022/04/18 08:18:44;;;;;;;3.00;2.47;;;;;14.40;94153.00;;;;7400048;19;20177;-75
2022/04/18 08:21:17;;;;;;;2.92;2.55;;;;;15.40;94142.00;;;;7401932;19;20132;-76
2022/04/18 08:23:52;;;;;;;5.70;2.78;;;;;15.90;94145.00;;;;7398329;19;20136;-76
2022/04/18 08:26:21;;;;;;;3.30;2.58;;;;;16.00;94146.00;;;;7399040;19;20689;-76
2022/04/18 08:28:49;;;;;;;5.22;3.17;;;;;16.00;94145.00;;;;7393290;19;20133;-74
2022/04/18 08:31:24;;;;;;;4.22;2.45;;;;;16.00;94146.00;;;;7390436;19;20184;-76
2022/04/18 08:33:52;;;;;;;3.03;2.58;;;;;16.80;94148.00;;;;7394732;19;20184;-75
2022/04/18 08:36:20;;;;;;;2.80;2.40;;;;;15.80;94151.00;;;;7397285;19;20168;-75
2022/04/18 08:38:55;;;;;;;4.97;2.70;;;;;16.40;94154.00;;;;7401642;19;20129;-75
2022/04/18 08:41:32;;;;;;;5.18;2.80;;;;;16.60;94152.00;;;;7398596;19;20430;-75
2022/04/18 08:44:09;;;;;;;5.22;2.65;;;;;16.70;94155.00;;;;7399839;19;20152;-76
2022/04/18 08:46:36;;;;;;;4.47;2.58;;;14.20;99.90;17.20;94156.00;;;;7401597;19;20148;-76
2022/04/18 08:54:47;;;;;;;4.28;2.40;;;15.00;99.90;17.30;94137.00;;;;7401851;19;20141;-76
2022/04/18 08:57:24;;;;;;;3.67;2.58;;;14.90;99.90;18.20;94148.00;;;;7389446;19;20225;-74
2022/04/18 08:59:52;;;;;;;5.68;3.08;;;15.00;99.90;17.70;94147.00;;;;7394276;19;20482;-77
2022/04/18 09:02:20;;;;;;;3.25;2.55;;;15.00;99.90;17.60;94152.00;;;;7398704;19;20144;-77
2022/04/18 09:04:55;;;;;;;4.05;3.38;;;14.70;99.90;17.50;94121.00;;;;7395087;19;20152;-75
2022/04/18 09:07:23;;;;;;;4.10;2.78;;;14.60;99.90;17.40;94150.00;;;;7389424;19;20156;-76
2022/04/18 09:09:55;;;;;;;4.00;2.78;;;14.60;99.90;17.90;94153.00;;;;7392390;19;20574;-75
2022/04/18 09:12:31;;;;;;;3.15;2.53;;;14.30;99.90;17.60;94159.00;;;;7395405;19;20152;-75
2022/04/18 09:14:59;;;;;;;2.70;2.35;;;14.30;99.90;18.30;94155.00;;;;7394334;19;20163;-75
2022/04/18 09:17:31;;;;;;;3.75;2.58;;;14.60;99.90;17.90;94133.00;;;;7391415;19;20156;-76
2022/04/18 09:20:20;;;;;;;3.53;2.80;;;14.80;99.90;18.40;94136.00;;;;7392662;19;20156;-76
2022/04/18 09:22:48;;;;;;;6.82;2.92;;;14.90;99.90;18.60;94126.00;;;;7395683;19;20140;-75
2022/04/18 09:25:23;;;;;;;3.80;2.83;;;15.20;99.90;17.90;94140.00;;;;7398233;19;20571;-75
2022/04/18 09:27:57;;;;;;;3.33;2.88;;;15.10;99.90;17.80;94139.00;;;;7391940;19;20129;-76
2022/04/18 09:30:32;;;;;;;3.95;2.80;;;15.20;99.90;17.60;94138.00;;;;7396837;19;20168;-76
2022/04/18 09:33:07;;;;;;;3.22;2.90;;;15.40;99.90;17.60;94129.00;;;;7396675;19;20161;-76
2022/04/18 09:35:42;;;;;;;3.22;2.92;;;15.10;99.90;17.10;94129.00;;;;7396686;19;20499;-75
2022/04/18 09:38:09;;;;;;;3.92;3.42;;;15.10;99.90;17.30;94119.00;;;;7398159;19;20604;-76
2022/04/18 09:40:37;;;;;;;5.15;2.97;;;14.90;99.90;17.30;94117.00;;;;7398461;19;21085;-77
2022/04/18 09:43:11;;;;;;;4.90;3.10;;;15.10;99.90;17.80;94143.00;;;;7396678;19;20144;-76
2022/04/18 09:45:42;;;;;;;4.35;2.92;;;15.50;99.90;17.40;94136.00;;;;7394985;19;20148;-75
2022/04/18 09:48:15;;;;;;;5.05;3.25;;;15.40;99.90;18.00;94128.00;;;;7393280;19;20144;-75
2022/04/18 09:51:00;;;;;;;5.68;3.30;;;15.60;99.90;18.00;94137.00;;;;7399595;19;20150;-75
2022/04/18 09:53:27;;;;;;;3.72;2.95;;;15.40;99.90;18.10;94136.00;;;;7398373;19;20156;-76
2022/04/18 09:56:01;;;;;;;3.88;3.00;;;15.50;99.90;18.10;94137.00;;;;7400298;19;20164;-76
2022/04/18 09:58:32;;;;;;;4.03;3.00;;;15.40;99.90;18.20;94145.00;;;;7400905;19;20174;-76
2022/04/18 10:01:20;;;;;;;3.67;2.92;;;15.60;99.90;19.20;94128.00;;;;7398838;19;20136;-75
2022/04/18 10:03:55;;;;;;;5.10;3.22;;;16.10;99.90;18.80;94138.00;;;;7399829;19;20132;-75
2022/04/18 10:06:22;;;;;;;2.92;2.47;;;16.10;99.90;19.00;94119.00;;;;7400574;19;20133;-75
2022/04/18 10:08:51;;;;;;;6.53;2.53;;;16.30;99.90;18.90;94128.00;;;;7396433;19;20148;-77
2022/04/18 10:11:25;;;;;;;4.60;2.60;;;16.50;99.90;19.50;94136.00;;;;7399675;19;20128;-75
2022/04/18 10:13:53;;;;;;;2.88;2.42;;;16.50;99.90;19.40;94123.00;;;;7397703;19;20631;-76
2022/04/18 10:16:21;;;;;;;3.03;2.65;;;16.70;99.90;19.70;94130.00;;;;7396810;19;20132;-75
2022/04/18 10:19:52;;;;;;;3.28;2.67;;;17.00;99.90;20.10;94121.00;;;;7392020;19;20219;-76
2022/04/18 10:22:49;;;;;;;3.22;2.60;;;17.40;99.90;20.30;94131.00;;;;7394983;19;20508;-77
2022/04/18 10:26:09;;;;;;;4.03;3.00;;;17.60;99.90;19.30;94127.00;;;;7395537;19;20520;-78
2022/04/18 10:28:42;;;;;;;3.25;2.60;;;17.70;99.90;20.60;94116.00;;;;7399003;19;20173;-76
2022/04/18 10:31:26;;;;;;;3.72;2.97;;;17.90;99.90;20.30;94105.00;;;;7397113;19;20159;-78
2022/04/18 10:33:57;;;;;;;3.33;2.85;;;17.80;99.90;19.90;94124.00;;;;7396674;19;20163;-77
2022/04/18 10:36:34;;;;;;;6.50;2.90;;;18.00;99.90;19.50;94120.00;;;;7397625;19;20204;-75
2022/04/18 10:39:08;;;;;;;5.38;2.90;;;17.70;99.90;19.60;94130.00;;;;7397794;19;20477;-76
2022/04/18 10:41:45;;;;;;;3.45;2.50;;;18.10;99.90;19.90;94121.00;;;;7405231;19;20137;-77
2022/04/18 10:44:19;;;;;;;5.63;2.60;;;18.40;99.90;19.90;94110.00;;;;7399185;19;20152;-76
2022/04/18 10:46:56;;;;;;;3.22;2.50;;;18.20;99.90;19.90;94121.00;;;;7404343;19;20148;-76
2022/04/18 10:49:28;;;;;;;4.40;3.28;;;18.20;99.90;19.60;94117.00;;;;7405061;19;20152;-76
2022/04/18 10:52:09;;;;;;;4.65;2.92;;;18.20;99.90;20.30;94103.00;;;;7405235;19;20153;-76
2022/04/18 10:54:37;;;;;;;3.08;2.40;;;18.60;99.90;21.10;94101.00;;;;7408022;19;20129;-76
2022/04/18 10:57:11;;;;;;;3.33;2.65;;;18.80;99.90;21.10;94080.00;;;;7403944;19;20140;-76
2022/04/18 10:59:42;;;;;;;4.03;2.92;;;18.80;99.90;19.70;94086.00;;;;7404174;19;20176;-77
2022/04/18 11:02:38;;;;;;;2.80;2.60;;;18.30;99.90;19.90;94105.00;;;;7403877;19;20527;-77
2022/04/18 11:05:12;;;;;;;5.50;3.00;;;18.60;99.90;21.00;94082.00;;;;7402602;19;20133;-76
2022/04/18 11:07:44;;;;;;;4.43;2.90;;;19.00;99.90;21.10;94101.00;;;;7400604;19;20125;-76
2022/04/18 11:10:19;;;;;;;2.92;2.60;;;19.30;99.90;21.30;94088.00;;;;7404771;19;20633;-78
2022/04/18 11:13:03;;;;;;;3.30;2.38;;;19.80;99.90;21.90;94087.00;;;;7403578;19;20623;-76
2022/04/18 11:15:31;;;;;;;3.30;2.90;;;20.20;99.90;21.60;94087.00;;;;7402709;19;20145;-78
2022/04/18 11:18:16;;;;;;;3.45;2.90;;;20.20;99.90;21.40;94093.00;;;;7400530;19;20841;-77
2022/04/18 11:20:44;;;;;;;3.42;2.88;;;20.40;99.90;21.60;94079.00;;;;7402659;19;20152;-77
2022/04/18 11:23:26;;;;;;;3.03;2.78;;;20.60;99.90;22.80;94065.00;;;;7402418;19;20157;-76
2022/04/18 11:26:03;;;;;;;3.67;3.05;;;20.90;99.90;23.30;94079.00;;;;7401316;19;20163;-76
2022/04/18 11:28:41;;;;;;;5.63;3.30;;;21.00;99.90;22.50;94072.00;;;;7403270;19;20141;-76
2022/04/18 11:31:23;;;;;;;3.60;3.10;;;21.10;99.90;22.70;94075.00;;;;7403495;19;20132;-77
2022/04/18 11:34:02;;;;;;;4.00;3.45;;;21.00;99.90;22.90;94060.00;;;;7402926;19;20151;-77
2022/04/18 11:36:34;;;;;;;4.40;3.40;;;21.10;99.90;22.90;94053.00;;;;7399547;19;20189;-77
2022/04/18 11:39:10;;;;;;;4.75;3.20;;;21.40;99.90;23.70;94075.00;;;;7393283;19;20224;-75
2022/04/18 11:41:38;;;;;;;3.90;3.28;;;21.70;99.90;23.10;94076.00;;;;7401878;19;20148;-77
2022/04/18 11:44:05;;;;;;;4.15;3.53;;;21.70;99.90;23.30;94056.00;;;;7394868;19;20157;-77
2022/04/18 11:46:40;;;;;;;3.75;3.30;;;21.30;99.90;23.00;94073.00;;;;7399257;19;20143;-76
2022/04/18 11:49:07;;;;;;;3.95;3.17;;;21.10;99.90;23.60;94055.00;;;;7398840;19;20730;-76
2022/04/18 11:51:50;;;;;;;3.83;3.15;;;21.40;99.90;23.30;94046.00;;;;7396230;19;20152;-77
2022/04/18 11:54:23;;;;;;;3.97;3.45;;;21.20;99.90;23.30;94057.00;;;;7403287;19;20604;-79
2022/04/18 11:57:01;;;;;;;6.97;3.75;;;21.40;99.90;22.50;94069.00;;;;7402044;19;20132;-77
2022/04/18 11:59:35;;;;;;;5.15;4.07;;;20.80;99.90;23.10;94038.00;;;;7401194;19;20145;-76
2022/04/18 12:07:48;;;;;;;5.60;3.50;;;20.40;99.90;22.40;94047.00;;;;7401724;19;20129;-77
2022/04/18 12:10:29;;;;;;;4.03;3.53;;;20.80;99.90;23.10;94055.00;;;;7399002;19;20184;-78
2022/04/18 12:12:56;;;;;;;4.22;3.50;;;20.40;99.90;22.60;94055.00;;;;7402596;19;20121;-77
2022/04/18 12:15:31;;;;;;;4.47;3.58;;;20.40;99.90;23.20;94019.00;;;;7400071;19;20659;-78
2022/04/18 12:18:16;;;;;;;3.95;3.50;;;20.50;99.90;22.10;94044.00;;;;7400647;19;20624;-77
2022/04/18 12:20:52;;;;;;;4.63;3.20;;;20.70;99.90;23.20;94045.00;;;;7402862;19;20125;-77
2022/04/18 12:23:26;;;;;;;4.13;3.55;;;20.60;99.90;22.90;94042.00;;;;7401594;19;20147;-77
2022/04/18 12:26:01;;;;;;;5.10;3.83;;;20.80;99.90;23.30;94028.00;;;;7398532;19;20158;-77
2022/04/18 12:28:30;;;;;;;4.00;3.60;;;21.20;99.90;23.00;94025.00;;;;7402495;19;20156;-77
2022/04/18 12:30:58;;;;;;;5.07;3.70;;;21.10;99.90;22.60;94044.00;;;;7401013;19;20141;-76
2022/04/18 12:33:31;;;;;;;5.28;3.72;;;21.00;99.90;22.40;94034.00;;;;7400653;19;20145;-76
2022/04/18 12:36:00;;;;;;;5.40;4.30;;;20.90;99.90;22.60;94033.00;;;;7400335;19;20129;-76
2022/04/18 12:38:36;;;;;;;4.80;3.70;;;20.70;99.90;22.10;94030.00;;;;7399070;19;20138;-76
2022/04/18 12:41:10;;;;;;;3.85;3.53;;;21.20;99.90;22.30;94011.00;;;;7400194;19;20137;-76
2022/04/18 12:43:39;;;;;;;5.10;3.70;;;21.20;99.90;22.60;94018.00;;;;7400655;19;20638;-76
2022/04/18 12:46:09;;;;;;;5.03;4.03;;;21.10;99.90;23.20;94037.00;;;;7393446;19;20585;-77